sensor_id;sensor_type;location;lat;lon;timestamp;pressure;altitude;pressure_sealevel;temperature;humidity
52653;BME280;39353;42.864;12.014;2023-03-04T17:39:21;97087.07;;;22.16;43.31
52653;BME280;39353;42.864;12.014;2023-03-04T17:42:04;97089.00;;;22.20;43.35
52653;BME280;39353;42.864;12.014;2023-03-04T17:44:45;97092.84;;;22.22;43.58
52653;BME280;39353;42.864;12.014;2023-03-04T17:47:13;97096.46;;;22.24;43.82
52653;BME280;39353;42.864;12.014;2023-03-04T17:49:55;97096.71;;;22.26;43.59
52653;BME280;39353;42.864;12.014;2023-03-04T17:52:22;97095.26;;;22.27;43.78
52653;BME280;39353;42.864;12.014;2023-03-04T17:54:54;97102.36;;;22.29;43.97
52653;BME280;39353;42.864;12.014;2023-03-04T17:57:36;97105.67;;;22.31;43.94
52653;BME280;39353;42.864;12.014;2023-03-04T18:00:05;97105.48;;;22.32;43.90
52653;BME280;39353;42.864;12.014;2023-03-04T18:02:46;97107.54;;;22.28;42.91
52653;BME280;39353;42.864;12.014;2023-03-04T18:05:14;97110.11;;;22.09;42.09
52653;BME280;39353;42.864;12.014;2023-03-04T18:07:55;97113.01;;;22.05;42.43
52653;BME280;39353;42.864;12.014;2023-03-04T18:10:22;97112.38;;;22.07;42.95
52653;BME280;39353;42.864;12.014;2023-03-04T18:13:04;97114.55;;;22.08;43.11
52653;BME280;39353;42.864;12.014;2023-03-04T18:15:32;97116.77;;;22.10;43.39
52653;BME280;39353;42.864;12.014;2023-03-04T18:17:59;97124.83;;;22.12;43.49
52653;BME280;39353;42.864;12.014;2023-03-04T18:20:26;97124.38;;;22.08;43.29
52653;BME280;39353;42.864;12.014;2023-03-04T18:23:07;97125.64;;;22.06;42.59
52653;BME280;39353;42.864;12.014;2023-03-04T18:25:34;97126.19;;;22.06;42.53
52653;BME280;39353;42.864;12.014;2023-03-04T18:28:15;97123.73;;;22.05;43.09
52653;BME280;39353;42.864;12.014;2023-03-04T18:30:43;97127.88;;;22.06;43.29
52653;BME280;39353;42.864;12.014;2023-03-04T18:33:10;97129.02;;;22.06;43.16
52653;BME280;39353;42.864;12.014;2023-03-04T18:35:37;97128.80;;;22.06;43.31
52653;BME280;39353;42.864;12.014;2023-03-04T18:38:04;97129.77;;;22.05;43.73
52653;BME280;39353;42.864;12.014;2023-03-04T18:40:45;97128.77;;;22.06;43.86
52653;BME280;39353;42.864;12.014;2023-03-04T18:43:27;97130.52;;;22.04;43.77
52653;BME280;39353;42.864;12.014;2023-03-04T18:48:49;97131.92;;;22.01;44.28
52653;BME280;39353;42.864;12.014;2023-03-04T18:51:33;97132.61;;;22.00;44.30
52653;BME280;39353;42.864;12.014;2023-03-04T18:54:01;97132.17;;;21.99;44.51
52653;BME280;39353;42.864;12.014;2023-03-04T18:56:48;97135.54;;;21.99;44.74
52653;BME280;39353;42.864;12.014;2023-03-04T18:59:39;97135.80;;;21.98;44.74
52653;BME280;39353;42.864;12.014;2023-03-04T19:02:48;97137.57;;;21.99;44.80
52653;BME280;39353;42.864;12.014;2023-03-04T19:05:32;97139.63;;;21.98;44.98
52653;BME280;39353;42.864;12.014;2023-03-04T19:08:14;97141.89;;;21.99;44.84
52653;BME280;39353;42.864;12.014;2023-03-04T19:11:00;97142.41;;;21.98;44.86
52653;BME280;39353;42.864;12.014;2023-03-04T19:13:41;97148.50;;;21.96;44.85
52653;BME280;39353;42.864;12.014;2023-03-04T19:16:39;97151.91;;;21.94;44.59
52653;BME280;39353;42.864;12.014;2023-03-04T19:19:24;97148.96;;;21.92;44.65
52653;BME280;39353;42.864;12.014;2023-03-04T19:22:05;97154.55;;;21.92;44.62
52653;BME280;39353;42.864;12.014;2023-03-04T19:24:46;97155.61;;;21.94;44.64
52653;BME280;39353;42.864;12.014;2023-03-04T19:27:27;97155.02;;;21.94;44.74
52653;BME280;39353;42.864;12.014;2023-03-04T19:30:12;97156.27;;;21.94;44.55
52653;BME280;39353;42.864;12.014;2023-03-04T19:32:54;97157.33;;;21.98;44.64
52653;BME280;39353;42.864;12.014;2023-03-04T19:35:22;97158.58;;;22.00;44.54
52653;BME280;39353;42.864;12.014;2023-03-04T19:38:03;97156.69;;;22.05;44.58
52653;BME280;39353;42.864;12.014;2023-03-04T19:40:44;97160.56;;;22.09;44.53
52653;BME280;39353;42.864;12.014;2023-03-04T19:43:13;97162.38;;;22.13;44.77
52653;BME280;39353;42.864;12.014;2023-03-04T19:45:42;97158.93;;;22.18;44.85
52653;BME280;39353;42.864;12.014;2023-03-04T19:48:23;97161.73;;;22.22;44.87
52653;BME280;39353;42.864;12.014;2023-03-04T19:50:51;97169.31;;;22.26;44.88
52653;BME280;39353;42.864;12.014;2023-03-04T19:53:32;97167.20;;;22.30;45.13
52653;BME280;39353;42.864;12.014;2023-03-04T19:56:14;97168.73;;;22.33;44.99
52653;BME280;39353;42.864;12.014;2023-03-04T19:58:44;97166.81;;;22.35;44.82
52653;BME280;39353;42.864;12.014;2023-03-04T20:01:33;97168.90;;;22.36;44.95
52653;BME280;39353;42.864;12.014;2023-03-04T20:04:06;97171.05;;;22.38;44.79
52653;BME280;39353;42.864;12.014;2023-03-04T20:06:43;97171.35;;;22.39;44.97
52653;BME280;39353;42.864;12.014;2023-03-04T20:09:13;97174.23;;;22.39;44.65
52653;BME280;39353;42.864;12.014;2023-03-04T20:11:55;97174.35;;;22.39;44.84
52653;BME280;39353;42.864;12.014;2023-03-04T20:14:27;97176.86;;;22.38;44.71
52653;BME280;39353;42.864;12.014;2023-03-04T20:17:11;97177.36;;;22.39;44.81
52653;BME280;39353;42.864;12.014;2023-03-04T20:19:55;97177.40;;;22.38;44.97
52653;BME280;39353;42.864;12.014;2023-03-04T20:22:28;97184.42;;;22.39;44.99
52653;BME280;39353;42.864;12.014;2023-03-04T20:24:59;97184.63;;;22.38;45.05
52653;BME280;39353;42.864;12.014;2023-03-04T20:27:43;97183.20;;;22.38;45.22
52653;BME280;39353;42.864;12.014;2023-03-04T20:30:12;97184.72;;;22.37;45.19
52653;BME280;39353;42.864;12.014;2023-03-04T20:32:41;97188.05;;;22.37;45.27
52653;BME280;39353;42.864;12.014;2023-03-04T20:35:11;97187.86;;;22.33;45.55
52653;BME280;39353;42.864;12.014;2023-03-04T20:37:54;97187.27;;;22.32;45.53
52653;BME280;39353;42.864;12.014;2023-03-04T20:40:37;97187.90;;;22.32;45.55
52653;BME280;39353;42.864;12.014;2023-03-04T20:43:23;97191.81;;;22.31;45.52
52653;BME280;39353;42.864;12.014;2023-03-04T20:48:44;97194.82;;;22.31;45.69
52653;BME280;39353;42.864;12.014;2023-03-04T20:51:12;97195.84;;;22.30;45.88
52653;BME280;39353;42.864;12.014;2023-03-04T20:53:54;97197.98;;;22.30;45.82
52653;BME280;39353;42.864;12.014;2023-03-04T20:56:23;97197.82;;;22.30;45.82
52653;BME280;39353;42.864;12.014;2023-03-04T20:58:53;97194.20;;;22.30;45.63
52653;BME280;39353;42.864;12.014;2023-03-04T21:01:38;97195.46;;;22.28;45.81
52653;BME280;39353;42.864;12.014;2023-03-04T21:04:20;97194.48;;;22.25;45.67
52653;BME280;39353;42.864;12.014;2023-03-04T21:07:02;97197.15;;;22.24;45.94
52653;BME280;39353;42.864;12.014;2023-03-04T21:09:45;97195.67;;;22.24;45.54
52653;BME280;39353;42.864;12.014;2023-03-04T21:12:12;97196.15;;;22.24;45.70
52653;BME280;39353;42.864;12.014;2023-03-04T21:14:53;97194.21;;;22.22;45.72
52653;BME280;39353;42.864;12.014;2023-03-04T21:17:21;97189.39;;;22.21;45.47
52653;BME280;39353;42.864;12.014;2023-03-04T21:20:04;97193.57;;;22.20;45.67
52653;BME280;39353;42.864;12.014;2023-03-04T21:22:33;97193.27;;;22.18;45.61
52653;BME280;39353;42.864;12.014;2023-03-04T21:25:00;97195.18;;;22.16;45.70
52653;BME280;39353;42.864;12.014;2023-03-04T21:27:27;97193.69;;;22.15;45.82
52653;BME280;39353;42.864;12.014;2023-03-04T21:30:20;97190.87;;;22.14;45.75
52653;BME280;39353;42.864;12.014;2023-03-04T21:32:48;97196.61;;;22.11;46.00
52653;BME280;39353;42.864;12.014;2023-03-04T21:35:29;97197.08;;;22.09;45.90
52653;BME280;39353;42.864;12.014;2023-03-04T21:38:13;97195.73;;;22.08;46.01
52653;BME280;39353;42.864;12.014;2023-03-04T21:40:41;97196.83;;;22.06;45.87
52653;BME280;39353;42.864;12.014;2023-03-04T21:43:08;97197.59;;;22.05;45.81
52653;BME280;39353;42.864;12.014;2023-03-04T21:46:15;97197.41;;;22.05;46.03
52653;BME280;39353;42.864;12.014;2023-03-04T21:48:43;97192.51;;;22.00;46.04
52653;BME280;39353;42.864;12.014;2023-03-04T21:51:24;97194.27;;;21.99;46.04
52653;BME280;39353;42.864;12.014;2023-03-04T21:54:05;97192.27;;;21.97;45.98
52653;BME280;39353;42.864;12.014;2023-03-04T21:56:47;97191.45;;;21.96;46.05
52653;BME280;39353;42.864;12.014;2023-03-04T21:59:30;97191.23;;;21.94;46.12
52653;BME280;39353;42.864;12.014;2023-03-04T22:01:58;97189.55;;;21.92;46.22
52653;BME280;39353;42.864;12.014;2023-03-04T22:04:25;97185.73;;;21.90;46.20
52653;BME280;39353;42.864;12.014;2023-03-04T22:06:52;97186.35;;;21.88;46.23
52653;BME280;39353;42.864;12.014;2023-03-04T22:09:33;97184.17;;;21.85;46.50
52653;BME280;39353;42.864;12.014;2023-03-04T22:12:00;97180.82;;;21.85;46.65
52653;BME280;39353;42.864;12.014;2023-03-04T22:14:41;97181.33;;;21.85;46.60
52653;BME280;39353;42.864;12.014;2023-03-04T22:17:09;97184.42;;;21.85;46.60
52653;BME280;39353;42.864;12.014;2023-03-04T22:19:50;97182.73;;;21.84;46.70
52653;BME280;39353;42.864;12.014;2023-03-04T22:22:17;97182.88;;;21.83;46.65
52653;BME280;39353;42.864;12.014;2023-03-04T22:25:00;97184.52;;;21.84;46.47
52653;BME280;39353;42.864;12.014;2023-03-04T22:27:28;97186.03;;;21.83;46.65
52653;BME280;39353;42.864;12.014;2023-03-04T22:30:10;97184.69;;;21.81;46.75
52653;BME280;39353;42.864;12.014;2023-03-04T22:32:53;97183.71;;;21.81;46.48
52653;BME280;39353;42.864;12.014;2023-03-04T22:35:20;97184.99;;;21.83;46.69
52653;BME280;39353;42.864;12.014;2023-03-04T22:38:01;97183.40;;;21.82;46.69
52653;BME280;39353;42.864;12.014;2023-03-04T22:40:32;97184.28;;;21.80;46.70
52653;BME280;39353;42.864;12.014;2023-03-04T22:42:59;97185.41;;;21.76;46.68
52653;BME280;39353;42.864;12.014;2023-03-04T22:45:28;97187.26;;;21.74;46.89
52653;BME280;39353;42.864;12.014;2023-03-04T22:48:10;97188.35;;;21.71;46.71
52653;BME280;39353;42.864;12.014;2023-03-04T22:50:51;97186.52;;;21.68;46.87
52653;BME280;39353;42.864;12.014;2023-03-04T22:53:33;97186.55;;;21.67;47.01
52653;BME280;39353;42.864;12.014;2023-03-04T22:56:14;97186.21;;;21.64;46.89
52653;BME280;39353;42.864;12.014;2023-03-04T22:58:55;97189.48;;;21.63;46.88
52653;BME280;39353;42.864;12.014;2023-03-04T23:01:36;97189.36;;;21.61;46.96
52653;BME280;39353;42.864;12.014;2023-03-04T23:04:04;97185.30;;;21.59;46.92
52653;BME280;39353;42.864;12.014;2023-03-04T23:06:45;97186.24;;;21.56;47.01
52653;BME280;39353;42.864;12.014;2023-03-04T23:09:26;97181.77;;;21.54;47.11
52653;BME280;39353;42.864;12.014;2023-03-04T23:12:08;97182.16;;;21.50;47.09
52653;BME280;39353;42.864;12.014;2023-03-04T23:14:57;97187.80;;;21.47;46.96
52653;BME280;39353;42.864;12.014;2023-03-04T23:17:25;97188.51;;;21.43;47.25
52653;BME280;39353;42.864;12.014;2023-03-04T23:20:07;97189.64;;;21.40;47.42
52653;BME280;39353;42.864;12.014;2023-03-04T23:22:34;97192.63;;;21.37;47.26
52653;BME280;39353;42.864;12.014;2023-03-04T23:25:17;97193.59;;;21.35;47.38
52653;BME280;39353;42.864;12.014;2023-03-04T23:27:45;97192.88;;;21.32;47.42
52653;BME280;39353;42.864;12.014;2023-03-04T23:30:26;97189.63;;;21.27;47.53
52653;BME280;39353;42.864;12.014;2023-03-04T23:32:54;97194.02;;;21.25;47.40
52653;BME280;39353;42.864;12.014;2023-03-04T23:35:57;97193.16;;;21.21;47.68
52653;BME280;39353;42.864;12.014;2023-03-04T23:38:39;97198.93;;;21.18;47.55
52653;BME280;39353;42.864;12.014;2023-03-04T23:41:12;97197.50;;;21.15;47.59
52653;BME280;39353;42.864;12.014;2023-03-04T23:43:54;97197.42;;;21.12;47.78
52653;BME280;39353;42.864;12.014;2023-03-04T23:46:22;97198.35;;;21.09;47.82
52653;BME280;39353;42.864;12.014;2023-03-04T23:49:08;97199.90;;;21.06;47.82
52653;BME280;39353;42.864;12.014;2023-03-04T23:51:37;97198.75;;;21.03;47.72
52653;BME280;39353;42.864;12.014;2023-03-04T23:54:13;97195.19;;;21.01;47.67
52653;BME280;39353;42.864;12.014;2023-03-04T23:56:57;97197.28;;;20.97;47.74
52653;BME280;39353;42.864;12.014;2023-03-04T23:59:38;97199.39;;;20.94;47.81
